createdAt,value
2019-02-04T00:00:10.450Z,0
2019-02-04T00:03:48.415Z,0
2019-02-04T00:07:08.628Z,0
2019-02-04T00:08:02.402Z,0
2019-02-04T00:08:56.239Z,0
2019-02-04T00:11:04.902Z,0
2019-02-04T00:11:55.423Z,0
2019-02-04T00:14:45.915Z,0
2019-02-04T00:15:34.716Z,0
2019-02-04T00:21:04.482Z,0
2019-02-04T00:21:55.786Z,0
2019-02-04T00:22:44.899Z,0
2019-02-04T00:23:34.767Z,0
2019-02-04T00:24:25.395Z,0
2019-02-04T00:25:15.470Z,0
2019-02-04T00:26:06.698Z,0
2019-02-04T00:26:51.471Z,0
2019-02-04T00:27:29.549Z,0
2019-02-04T00:28:09.935Z,0
2019-02-04T00:28:50.364Z,0
2019-02-04T00:29:30.741Z,0
2019-02-04T00:30:11.111Z,0
2019-02-04T00:30:51.495Z,0
2019-02-04T00:31:31.902Z,0
2019-02-04T00:32:12.344Z,0
2019-02-04T00:32:52.685Z,0
2019-02-04T00:33:33.078Z,0
2019-02-04T00:34:13.492Z,0
2019-02-04T00:34:53.866Z,0
2019-02-04T00:35:34.297Z,0
2019-02-04T00:36:14.691Z,0
2019-02-04T00:36:55.102Z,0
2019-02-04T00:37:35.542Z,0
2019-02-04T00:38:15.955Z,0
2019-02-04T00:38:56.394Z,0
2019-02-04T00:39:36.747Z,0
2019-02-04T00:40:17.138Z,0
2019-02-04T00:40:57.583Z,0
2019-02-04T00:41:37.933Z,0
2019-02-04T00:42:18.308Z,0
2019-02-04T00:42:58.679Z,0
2019-02-04T00:43:39.065Z,0
2019-02-04T00:44:19.435Z,0
2019-02-04T00:44:59.825Z,0
2019-02-04T00:45:40.244Z,0
2019-02-04T00:46:20.648Z,0
2019-02-04T00:47:01.045Z,0
2019-02-04T00:47:41.437Z,0
2019-02-04T00:48:21.828Z,0
2019-02-04T00:49:02.208Z,0
2019-02-04T00:49:42.653Z,0
2019-02-04T00:50:23.058Z,0
2019-02-04T00:53:01.140Z,0
2019-02-04T00:53:52.405Z,0
2019-02-04T00:54:40.862Z,0
2019-02-04T00:57:10.964Z,0
2019-02-04T00:58:01.333Z,0
2019-02-04T00:58:51.020Z,0
2019-02-04T00:59:41.646Z,0
2019-02-04T01:00:35.266Z,0
2019-02-04T01:01:25.849Z,0
2019-02-04T01:02:16.954Z,0
2019-02-04T01:03:12.639Z,0
2019-02-04T01:06:19.586Z,0
2019-02-04T01:07:08.584Z,0
2019-02-04T01:07:58.237Z,0
2019-02-04T01:08:46.938Z,0
2019-02-04T01:09:36.102Z,0
2019-02-04T01:10:24.951Z,0
2019-02-04T01:11:14.961Z,0
2019-02-04T01:12:04.814Z,0
2019-02-04T01:12:52.994Z,0
2019-02-04T01:13:42.340Z,0
2019-02-04T01:21:08.033Z,0
2019-02-04T01:23:17.716Z,0
2019-02-04T01:24:10.315Z,0
2019-02-04T01:25:00.001Z,0
2019-02-04T01:25:54.005Z,0
2019-02-04T01:26:45.008Z,0
2019-02-04T01:27:30.707Z,0
2019-02-04T01:30:21.409Z,0
2019-02-04T01:31:11.577Z,0
2019-02-04T01:32:04.128Z,0
2019-02-04T01:32:54.896Z,0
2019-02-04T01:33:48.048Z,0
2019-02-04T01:34:36.591Z,0
2019-02-04T01:35:28.234Z,0
2019-02-04T01:37:32.854Z,0
2019-02-04T01:43:54.991Z,0
2019-02-04T01:46:26.253Z,0
2019-02-04T01:51:20.159Z,0
2019-02-04T01:52:10.965Z,0
2019-02-04T01:53:02.186Z,0
2019-02-04T01:53:49.798Z,0
2019-02-04T01:54:38.058Z,0
2019-02-04T01:55:27.576Z,0
2019-02-04T01:56:16.998Z,0
2019-02-04T01:57:05.513Z,0
2019-02-04T01:57:54.400Z,0
2019-02-04T01:58:43.877Z,0
2019-02-04T01:59:32.362Z,0
2019-02-04T02:00:21.448Z,0
2019-02-04T02:01:10.584Z,0
2019-02-04T02:01:59.627Z,0
2019-02-04T02:02:47.781Z,0
2019-02-04T02:03:37.044Z,0
2019-02-04T02:04:27.107Z,0
2019-02-04T02:05:16.517Z,0
2019-02-04T02:06:05.293Z,0
2019-02-04T02:06:54.702Z,0
2019-02-04T02:07:44.798Z,0
2019-02-04T02:08:32.609Z,0
2019-02-04T02:09:22.055Z,0
2019-02-04T02:10:10.497Z,0
2019-02-04T02:10:59.913Z,0
2019-02-04T02:11:49.087Z,0
2019-02-04T02:12:40.583Z,0
2019-02-04T02:13:28.788Z,0
2019-02-04T02:14:18.537Z,0
2019-02-04T02:15:07.120Z,0
2019-02-04T02:15:56.929Z,0
2019-02-04T02:16:45.065Z,0
2019-02-04T02:17:34.690Z,0
2019-02-04T02:18:23.578Z,0
2019-02-04T02:19:12.679Z,0
2019-02-04T02:20:02.609Z,0
2019-02-04T02:20:51.205Z,0
2019-02-04T02:21:41.370Z,0
2019-02-04T02:22:30.045Z,0
2019-02-04T02:23:19.267Z,0
2019-02-04T02:24:10.126Z,0
2019-02-04T02:24:59.270Z,0
2019-02-04T02:25:47.526Z,0
2019-02-04T02:26:37.309Z,0
2019-02-04T02:27:27.804Z,0
2019-02-04T02:28:16.625Z,0
2019-02-04T02:29:06.122Z,0
2019-02-04T02:29:55.971Z,0
2019-02-04T02:30:46.435Z,0
2019-02-04T02:33:10.607Z,0
2019-02-04T02:34:03.027Z,0
2019-02-04T02:34:55.658Z,0
2019-02-04T02:35:46.838Z,0
2019-02-04T02:36:42.559Z,0
2019-02-04T02:37:43.698Z,0
2019-02-04T02:38:31.512Z,0
2019-02-04T02:39:24.729Z,0
2019-02-04T02:40:19.699Z,0
2019-02-04T02:41:10.439Z,0
2019-02-04T02:42:01.129Z,0
2019-02-04T02:42:55.331Z,0
2019-02-04T02:43:45.495Z,0
2019-02-04T02:44:37.859Z,0
2019-02-04T02:45:28.333Z,0
2019-02-04T02:46:19.714Z,0
2019-02-04T02:48:52.231Z,0
2019-02-04T02:49:43.841Z,0
2019-02-04T02:50:32.764Z,0
2019-02-04T02:51:25.044Z,0
2019-02-04T02:52:17.890Z,0
2019-02-04T02:55:31.854Z,0
2019-02-04T02:56:24.086Z,0
2019-02-04T02:57:16.247Z,0
2019-02-04T02:58:11.602Z,0
2019-02-04T02:59:03.870Z,0
2019-02-04T02:59:51.442Z,0
2019-02-04T03:00:41.539Z,0
2019-02-04T03:01:34.909Z,0
2019-02-04T03:02:25.822Z,0
2019-02-04T03:03:15.982Z,0
2019-02-04T03:04:08.954Z,0
2019-02-04T03:04:58.931Z,0
2019-02-04T03:05:51.888Z,0
2019-02-04T03:06:36.044Z,0
2019-02-04T03:07:30.806Z,0
2019-02-04T03:09:31.587Z,0
2019-02-04T03:10:21.410Z,0
2019-02-04T03:11:15.216Z,0
2019-02-04T03:14:02.421Z,0
2019-02-04T03:14:51.653Z,0
2019-02-04T03:15:37.775Z,0
2019-02-04T03:16:35.205Z,0
2019-02-04T03:18:54.467Z,0
2019-02-04T03:20:54.609Z,0
2019-02-04T03:21:46.994Z,0
2019-02-04T03:22:37.093Z,0
2019-02-04T03:23:28.756Z,0
2019-02-04T03:24:18.388Z,0
2019-02-04T03:25:10.281Z,0
2019-02-04T03:27:48.380Z,0
2019-02-04T03:32:06.362Z,0
2019-02-04T03:32:57.580Z,0
2019-02-04T03:33:51.998Z,0
2019-02-04T03:34:45.036Z,0
2019-02-04T03:35:37.731Z,0
2019-02-04T03:36:30.794Z,0
2019-02-04T03:37:25.426Z,0
2019-02-04T03:38:15.331Z,0
2019-02-04T03:40:21.310Z,0
2019-02-04T03:41:12.079Z,0
2019-02-04T03:42:02.451Z,0
2019-02-04T03:42:53.772Z,0
2019-02-04T03:43:48.379Z,0
2019-02-04T03:44:39.536Z,0
2019-02-04T03:45:30.497Z,0
2019-02-04T03:46:22.544Z,0
2019-02-04T03:50:19.042Z,0
2019-02-04T03:51:11.370Z,0
2019-02-04T03:53:48.042Z,0
2019-02-04T03:54:37.638Z,0
2019-02-04T03:55:26.334Z,0
2019-02-04T03:56:14.787Z,0
2019-02-04T03:57:03.403Z,0
2019-02-04T03:57:53.659Z,0
2019-02-04T03:58:45.300Z,0
2019-02-04T03:59:38.981Z,0
2019-02-04T04:00:29.279Z,0
2019-02-04T04:01:22.363Z,0
2019-02-04T04:02:16.078Z,0
2019-02-04T04:03:06.128Z,0
2019-02-04T04:03:58.932Z,0
2019-02-04T04:14:18.178Z,0
2019-02-04T04:15:07.799Z,0
2019-02-04T04:15:56.317Z,0
2019-02-04T04:16:54.891Z,0
2019-02-04T04:17:40.539Z,0
2019-02-04T04:18:31.880Z,0
2019-02-04T04:19:21.339Z,0
2019-02-04T04:27:00.515Z,0
2019-02-04T04:27:52.618Z,0
2019-02-04T04:28:45.035Z,0
2019-02-04T05:07:34.930Z,0
2019-02-04T05:08:27.457Z,0
2019-02-04T05:09:21.093Z,0
2019-02-04T05:10:13.306Z,0
2019-02-04T05:12:43.487Z,0
2019-02-04T05:13:34.614Z,0
2019-02-04T05:14:25.795Z,0
2019-02-04T05:15:14.520Z,0
2019-02-04T05:17:47.180Z,0
2019-02-04T05:18:40.167Z,0
2019-02-04T05:19:30.398Z,0
2019-02-04T05:20:24.164Z,0
2019-02-04T05:22:46.485Z,0
2019-02-04T05:23:35.080Z,0
2019-02-04T05:24:23.613Z,0
2019-02-04T05:25:11.735Z,0
2019-02-04T05:26:06.061Z,0
2019-02-04T05:26:52.602Z,0
2019-02-04T05:27:32.978Z,0
2019-02-04T05:28:13.380Z,0
2019-02-04T05:28:53.944Z,0
2019-02-04T05:29:34.275Z,0
2019-02-04T05:30:14.759Z,0
2019-02-04T05:30:55.218Z,0
2019-02-04T05:31:35.725Z,0
2019-02-04T05:32:16.111Z,0
2019-02-04T05:32:56.761Z,0
2019-02-04T05:33:37.174Z,0
2019-02-04T05:34:17.597Z,0
2019-02-04T05:34:58.009Z,0
2019-02-04T05:35:38.349Z,0
2019-02-04T05:36:18.749Z,0
2019-02-04T05:36:59.239Z,0
2019-02-04T05:37:39.649Z,0
2019-02-04T05:38:20.060Z,0
2019-02-04T05:39:00.459Z,0
2019-02-04T05:39:40.971Z,0
2019-02-04T05:40:21.359Z,0
2019-02-04T05:41:02.167Z,0
2019-02-04T05:41:43.139Z,0
2019-02-04T05:42:23.216Z,0
2019-02-04T05:43:03.911Z,0
2019-02-04T05:43:44.366Z,0
2019-02-04T05:44:24.837Z,0
2019-02-04T05:45:05.174Z,0
2019-02-04T05:45:45.643Z,0
2019-02-04T05:46:26.106Z,0
2019-02-04T05:47:06.389Z,0
2019-02-04T05:47:46.823Z,0
2019-02-04T05:48:27.255Z,0
2019-02-04T05:49:07.595Z,0
2019-02-04T05:49:47.992Z,0
2019-02-04T05:50:28.426Z,0
2019-02-04T05:51:08.862Z,0
2019-02-04T05:51:49.270Z,0
2019-02-04T05:52:29.627Z,0
2019-02-04T05:53:10.107Z,0
2019-02-04T05:53:52.200Z,0
2019-02-04T05:54:33.444Z,0
2019-02-04T05:55:13.915Z,0
2019-02-04T05:55:54.282Z,0
2019-02-04T05:56:34.699Z,0
2019-02-04T05:57:15.149Z,0
2019-02-04T05:57:55.704Z,0
2019-02-04T05:58:42.269Z,0
2019-02-04T06:01:54.727Z,0
2019-02-04T06:02:47.332Z,0
2019-02-04T06:03:39.925Z,0
2019-02-04T06:04:33.792Z,0
2019-02-04T06:05:26.759Z,0
2019-02-04T06:06:21.690Z,0
2019-02-04T06:09:02.221Z,0
2019-02-04T06:09:49.052Z,0
2019-02-04T06:10:30.425Z,0
2019-02-04T06:11:13.630Z,0
2019-02-04T06:11:56.230Z,0
2019-02-04T06:12:37.273Z,0
2019-02-04T06:13:25.352Z,0
2019-02-04T06:14:05.979Z,0
2019-02-04T06:14:47.371Z,0
2019-02-04T06:15:28.611Z,0
2019-02-04T06:16:09.102Z,0
2019-02-04T06:16:49.692Z,0
2019-02-04T06:17:30.387Z,0
2019-02-04T06:18:14.323Z,0
2019-02-04T06:26:37.652Z,0
2019-02-04T06:27:30.383Z,0
2019-02-04T06:35:31.977Z,4
2019-02-04T06:36:22.370Z,0
2019-02-04T06:42:55.914Z,8
2019-02-04T06:43:47.164Z,4
2019-02-04T06:44:43.314Z,8
2019-02-04T06:45:26.014Z,4
2019-02-04T06:46:07.366Z,8
2019-02-04T06:46:48.201Z,8
2019-02-04T06:47:29.157Z,12
2019-02-04T06:48:11.533Z,12
2019-02-04T06:48:52.010Z,12
2019-02-04T06:49:33.390Z,16
2019-02-04T06:50:14.979Z,12
2019-02-04T06:50:55.740Z,16
2019-02-04T06:51:36.273Z,20
2019-02-04T06:52:18.249Z,20
2019-02-04T06:52:58.671Z,24
2019-02-04T06:53:38.983Z,28
2019-02-04T06:54:20.644Z,28
2019-02-04T06:55:01.261Z,32
2019-02-04T06:55:43.225Z,36
2019-02-04T06:56:24.854Z,36
2019-02-04T06:57:06.257Z,44
2019-02-04T06:57:47.456Z,44
2019-02-04T06:58:27.722Z,52
2019-02-04T06:59:08.522Z,56
2019-02-04T06:59:49.954Z,56
2019-02-04T07:02:21.717Z,72
2019-02-04T07:03:14.703Z,80
2019-02-04T07:04:07.118Z,80
2019-02-04T07:05:02.736Z,88
2019-02-04T07:05:54.884Z,96
2019-02-04T07:06:51.317Z,100
2019-02-04T07:07:44.702Z,108
2019-02-04T07:08:40.628Z,116
2019-02-04T07:09:44.627Z,120
2019-02-04T07:12:13.776Z,140
2019-02-04T07:13:07.711Z,148
2019-02-04T07:14:01.012Z,160
2019-02-04T07:14:55.101Z,172
2019-02-04T07:15:48.490Z,184
2019-02-04T07:16:44.188Z,216
2019-02-04T07:17:36.641Z,228
2019-02-04T07:18:31.400Z,256
2019-02-04T07:19:27.145Z,280
2019-02-04T07:20:29.060Z,308
2019-02-04T07:23:31.104Z,440
2019-02-04T07:24:26.620Z,472
2019-02-04T07:25:22.174Z,508
2019-02-04T07:26:20.250Z,548
2019-02-04T07:27:22.385Z,584
2019-02-04T07:28:15.085Z,628
2019-02-04T07:29:12.341Z,656
2019-02-04T07:30:22.853Z,684
2019-02-04T07:32:30.065Z,736
2019-02-04T07:33:26.773Z,692
2019-02-04T07:34:21.896Z,640
2019-02-04T07:35:24.765Z,588
2019-02-04T07:36:22.516Z,584
2019-02-04T07:37:34.245Z,576
2019-02-04T07:38:33.510Z,568
2019-02-04T07:39:35.636Z,564
2019-02-04T07:40:42.590Z,568
2019-02-04T07:41:55.069Z,576
2019-02-04T07:42:50.478Z,584
2019-02-04T07:43:53.200Z,584
2019-02-04T07:44:53.435Z,580
2019-02-04T07:46:00.215Z,580
2019-02-04T07:47:01.256Z,588
2019-02-04T07:48:04.942Z,600
2019-02-04T07:49:11.769Z,616
2019-02-04T07:50:23.437Z,640
2019-02-04T07:51:22.043Z,656
2019-02-04T07:52:27.694Z,668
2019-02-04T07:53:29.118Z,672
2019-02-04T07:56:20.782Z,700
2019-02-04T07:57:15.098Z,720
2019-02-04T07:58:10.074Z,728
2019-02-04T07:59:02.730Z,740
2019-02-04T07:59:59.290Z,756
2019-02-04T08:00:53.420Z,768
2019-02-04T08:01:47.709Z,780
2019-02-04T08:02:42.117Z,796
2019-02-04T08:03:43.803Z,808
2019-02-04T08:04:38.645Z,816
2019-02-04T08:05:43.485Z,824
2019-02-04T08:06:39.030Z,836
2019-02-04T08:07:34.552Z,852
2019-02-04T08:08:33.268Z,868
2019-02-04T08:09:27.752Z,884
2019-02-04T08:10:24.144Z,904
2019-02-04T08:11:17.470Z,916
2019-02-04T08:12:13.317Z,928
2019-02-04T08:13:10.314Z,948
2019-02-04T08:14:05.036Z,964
2019-02-04T08:15:01.477Z,988
2019-02-04T08:15:58.934Z,1004
2019-02-04T08:16:59.286Z,1024
2019-02-04T08:18:00.285Z,1052
2019-02-04T08:18:57.255Z,1072
2019-02-04T08:19:53.340Z,1088
2019-02-04T08:20:48.041Z,1112
2019-02-04T08:23:50.885Z,1212
2019-02-04T08:24:46.124Z,1236
2019-02-04T08:25:41.774Z,1240
2019-02-04T08:26:34.144Z,1244
2019-02-04T08:27:27.711Z,1240
2019-02-04T08:28:25.837Z,1240
2019-02-04T08:29:34.837Z,1256
2019-02-04T08:32:40.006Z,1292
2019-02-04T08:33:41.783Z,1292
2019-02-04T08:34:41.145Z,1304
2019-02-04T08:35:51.370Z,1304
2019-02-04T08:40:59.650Z,1332
2019-02-04T08:41:56.430Z,1320
2019-02-04T08:42:52.536Z,1308
2019-02-04T08:43:53.820Z,1292
2019-02-04T08:47:34.150Z,1272
2019-02-04T08:48:59.488Z,1268
2019-02-04T08:50:01.735Z,1272
2019-02-04T08:50:56.494Z,1268
2019-02-04T08:51:55.971Z,1264
2019-02-04T08:53:08.591Z,1260
2019-02-04T09:00:22.273Z,1276
2019-02-04T09:01:18.364Z,1260
2019-02-04T09:02:18.344Z,1248
2019-02-04T09:03:15.073Z,1240
2019-02-04T09:04:12.152Z,1228
2019-02-04T09:05:11.361Z,1216
2019-02-04T09:06:05.276Z,1204
2019-02-04T09:07:01.832Z,1200
2019-02-04T09:08:00.733Z,1192
2019-02-04T09:09:02.037Z,1184
2019-02-04T09:10:01.914Z,1180
2019-02-04T09:11:03.608Z,1176
2019-02-04T09:12:03.698Z,1168
2019-02-04T09:13:02.256Z,1160
2019-02-04T09:13:59.698Z,1152
2019-02-04T09:15:00.592Z,1148
2019-02-04T09:16:03.136Z,1140
2019-02-04T09:17:13.138Z,1128
2019-02-04T09:18:14.164Z,1124
2019-02-04T09:19:13.138Z,1124
2019-02-04T09:20:13.146Z,1120
2019-02-04T09:21:16.460Z,1120
2019-02-04T09:22:20.946Z,1116
2019-02-04T09:23:26.690Z,1112
2019-02-04T09:24:30.791Z,1108
2019-02-04T09:27:07.359Z,1116
2019-02-04T09:28:06.515Z,1128
2019-02-04T09:29:01.246Z,1144
2019-02-04T09:30:00.342Z,1160
2019-02-04T09:30:58.483Z,1176
2019-02-04T09:31:55.764Z,1188
2019-02-04T09:32:53.945Z,1196
2019-02-04T09:33:50.431Z,1200
2019-02-04T09:34:49.411Z,1212
2019-02-04T09:35:43.870Z,1216
2019-02-04T09:36:43.328Z,1220
2019-02-04T09:37:45.276Z,1224
2019-02-04T09:38:43.131Z,1224
2019-02-04T09:39:45.966Z,1220
2019-02-04T09:40:40.115Z,1224
2019-02-04T09:41:43.723Z,1224
2019-02-04T09:42:42.976Z,1216
2019-02-04T09:48:48.264Z,1200
2019-02-04T09:49:43.771Z,1200
2019-02-04T09:50:44.068Z,1208
2019-02-04T09:51:46.092Z,1216
2019-02-04T09:52:44.420Z,1228
2019-02-04T09:53:40.646Z,1240
2019-02-04T09:54:46.217Z,1248
2019-02-04T09:55:43.229Z,1268
2019-02-04T09:56:43.749Z,1276
2019-02-04T09:57:41.144Z,1288
2019-02-04T09:58:41.766Z,1300
2019-02-04T09:59:40.869Z,1312
2019-02-04T10:00:39.606Z,1316
2019-02-04T10:01:45.151Z,1328
2019-02-04T10:02:40.220Z,1336
2019-02-04T10:03:40.097Z,1344
2019-02-04T10:04:51.418Z,1348
2019-02-04T10:05:49.636Z,1356
2019-02-04T10:06:48.555Z,1368
2019-02-04T10:07:45.255Z,1376
2019-02-04T10:08:42.447Z,1384
2019-02-04T10:09:39.296Z,1396
2019-02-04T10:10:47.073Z,1400
2019-02-04T10:11:44.673Z,1404
2019-02-04T10:12:42.336Z,1408
2019-02-04T10:15:20.506Z,1420
2019-02-04T10:16:19.542Z,1432
2019-02-04T10:17:22.738Z,1452
2019-02-04T10:18:19.891Z,1464
2019-02-04T10:19:24.303Z,1472
2019-02-04T10:20:33.752Z,1476
2019-02-04T10:21:33.849Z,1444
2019-02-04T10:22:37.655Z,1444
2019-02-04T10:23:38.402Z,1444
2019-02-04T10:24:37.785Z,1452
2019-02-04T10:25:35.961Z,1444
2019-02-04T11:07:22.243Z,1592
2019-02-04T11:10:32.008Z,1600
2019-02-04T11:11:24.911Z,1604
2019-02-04T11:12:18.545Z,1608
2019-02-04T11:13:11.819Z,1600
2019-02-04T11:14:06.665Z,1600
2019-02-04T11:15:03.399Z,1644
2019-02-04T11:16:04.963Z,1660
2019-02-04T11:17:05.956Z,1648
2019-02-04T11:18:02.442Z,1652
2019-02-04T11:19:01.813Z,1668
2019-02-04T11:20:07.198Z,1704
2019-02-04T11:22:37.197Z,1708
2019-02-04T11:26:10.209Z,1744
2019-02-04T11:26:53.037Z,1748
2019-02-04T11:27:34.224Z,1736
2019-02-04T11:28:15.557Z,1732
2019-02-04T11:28:55.324Z,1744
2019-02-04T11:29:37.561Z,1792
2019-02-04T11:30:18.973Z,1780
2019-02-04T11:30:59.277Z,1772
2019-02-04T11:31:40.753Z,1732
2019-02-04T11:32:22.121Z,1804
2019-02-04T11:33:03.112Z,1800
2019-02-04T11:33:43.640Z,1752
2019-02-04T11:34:24.824Z,1724
2019-02-04T11:35:05.295Z,1748
2019-02-04T11:35:46.524Z,1756
2019-02-04T11:36:26.975Z,1716
2019-02-04T11:37:09.293Z,1692
2019-02-04T11:37:50.574Z,1724
2019-02-04T11:38:33.104Z,1748
2019-02-04T11:39:14.982Z,1736
2019-02-04T11:39:56.138Z,1712
2019-02-04T11:40:36.909Z,1688
2019-02-04T11:41:18.007Z,1704
2019-02-04T11:41:58.376Z,1716
2019-02-04T11:42:39.347Z,1740
2019-02-04T11:43:20.271Z,1772
2019-02-04T11:44:01.342Z,1756
2019-02-04T11:44:43.345Z,1688
2019-02-04T11:45:24.129Z,1636
2019-02-04T11:46:04.673Z,1616
2019-02-04T11:46:46.971Z,1628
2019-02-04T11:47:30.918Z,1588
2019-02-04T11:48:13.054Z,1556
2019-02-04T11:48:55.078Z,1560
2019-02-04T11:49:35.207Z,1552
2019-02-04T11:50:15.805Z,1496
2019-02-04T11:50:56.557Z,1480
2019-02-04T11:51:37.976Z,1472
2019-02-04T11:52:18.988Z,1472
2019-02-04T11:53:01.070Z,1496
2019-02-04T11:53:41.529Z,1460
2019-02-04T11:54:25.527Z,1436
2019-02-04T11:55:05.658Z,1412
2019-02-04T11:55:46.137Z,1404
2019-02-04T11:56:27.476Z,1380
2019-02-04T11:57:08.203Z,1368
2019-02-04T11:57:49.315Z,1400
2019-02-04T11:58:31.036Z,1420
2019-02-04T11:59:11.883Z,1420
2019-02-04T11:59:52.436Z,1388
2019-02-04T12:02:13.772Z,1452
2019-02-04T12:10:32.343Z,1216
2019-02-04T12:32:38.323Z,1256
2019-02-04T12:33:20.919Z,1288
2019-02-04T12:34:24.647Z,1292
2019-02-04T12:35:08.831Z,1276
2019-02-04T12:35:54.664Z,1248
2019-02-04T12:36:40.930Z,1224
2019-02-04T12:37:26.221Z,1228
2019-02-04T12:38:07.947Z,1300
2019-02-04T12:38:52.774Z,1308
2019-02-04T12:39:35.401Z,1336
2019-02-04T12:40:17.040Z,1368
2019-02-04T12:41:01.071Z,1376
2019-02-04T12:41:42.550Z,1408
2019-02-04T12:42:26.144Z,1404
2019-02-04T12:43:12.920Z,1396
2019-02-04T12:43:55.172Z,1392
2019-02-04T12:44:36.177Z,1408
2019-02-04T12:50:57.040Z,1436
2019-02-04T12:51:47.577Z,1428
2019-02-04T12:52:30.640Z,1396
2019-02-04T12:53:11.219Z,1360
2019-02-04T12:53:53.856Z,1352
2019-02-04T12:54:37.345Z,1332
2019-02-04T12:55:18.748Z,1324
2019-02-04T12:56:01.417Z,1324
2019-02-04T12:56:42.665Z,1320
2019-02-04T12:57:24.964Z,1300
2019-02-04T12:58:05.803Z,1296
2019-02-04T12:58:55.220Z,1288
2019-02-04T13:07:38.498Z,1232
2019-02-04T13:08:37.698Z,1232
2019-02-04T13:09:45.828Z,1232
2019-02-04T13:17:48.388Z,1196
2019-02-04T13:18:43.227Z,1180
2019-02-04T13:19:40.706Z,1168
2019-02-04T13:20:38.085Z,1156
2019-02-04T13:21:32.731Z,1144
2019-02-04T13:22:28.997Z,1132
2019-02-04T13:23:27.739Z,1124
2019-02-04T13:24:22.613Z,1112
2019-02-04T13:25:35.928Z,1104
2019-02-04T13:26:29.996Z,1092
2019-02-04T13:27:25.285Z,1084
2019-02-04T13:28:30.932Z,1072
2019-02-04T13:29:29.155Z,1068
2019-02-04T13:30:29.492Z,1060
2019-02-04T13:31:25.283Z,1048
2019-02-04T13:32:20.799Z,1032
2019-02-04T13:33:15.242Z,1024
2019-02-04T13:34:08.372Z,1012
2019-02-04T13:35:02.482Z,1004
2019-02-04T13:35:56.990Z,996
2019-02-04T13:36:58.086Z,988
2019-02-04T13:37:52.658Z,984
2019-02-04T13:38:54.381Z,984
2019-02-04T13:39:49.559Z,980
2019-02-04T13:40:47.903Z,980
2019-02-04T13:41:42.799Z,980
2019-02-04T13:42:40.317Z,980
2019-02-04T13:43:35.757Z,976
2019-02-04T13:44:36.222Z,980
2019-02-04T13:45:36.673Z,988
2019-02-04T13:46:30.789Z,996
2019-02-04T13:47:27.945Z,1008
2019-02-04T13:48:24.411Z,1012
2019-02-04T13:49:28.871Z,1008
2019-02-04T13:50:23.657Z,1008
2019-02-04T13:51:20.561Z,1000
2019-02-04T13:52:17.365Z,996
2019-02-04T13:53:15.212Z,988
2019-02-04T13:54:08.861Z,976
2019-02-04T13:55:06.403Z,972
2019-02-04T13:56:01.343Z,972
2019-02-04T13:56:58.014Z,972
2019-02-04T13:57:52.757Z,972
2019-02-04T13:58:53.404Z,968
2019-02-04T13:59:52.505Z,956
2019-02-04T14:00:55.963Z,940
2019-02-04T14:01:52.172Z,920
2019-02-04T14:02:57.580Z,904
2019-02-04T14:03:44.731Z,892
2019-02-04T14:04:43.646Z,872
2019-02-04T14:05:41.027Z,860
2019-02-04T14:06:37.981Z,848
2019-02-04T14:07:40.802Z,836
2019-02-04T14:08:37.844Z,824
2019-02-04T14:09:31.851Z,812
2019-02-04T14:10:38.272Z,804
2019-02-04T14:11:33.642Z,796
2019-02-04T14:12:28.927Z,788
2019-02-04T14:13:35.869Z,784
2019-02-04T14:20:49.100Z,708
2019-02-04T14:21:41.285Z,696
2019-02-04T14:22:37.624Z,688
2019-02-04T14:23:32.265Z,676
2019-02-04T14:24:26.990Z,668
2019-02-04T14:25:27.944Z,648
2019-02-04T14:26:24.283Z,632
2019-02-04T14:27:29.826Z,616
2019-02-04T14:28:31.282Z,600
2019-02-04T14:29:35.804Z,588
2019-02-04T14:34:14.649Z,536
2019-02-04T14:35:09.277Z,528
2019-02-04T14:40:56.460Z,488
2019-02-04T14:41:36.347Z,484
2019-02-04T14:42:19.968Z,476
2019-02-04T14:43:00.241Z,468
2019-02-04T14:43:40.615Z,464
2019-02-04T14:45:47.838Z,440
2019-02-04T14:46:28.331Z,432
2019-02-04T14:49:36.971Z,408
2019-02-04T14:50:32.549Z,396
2019-02-04T14:51:20.744Z,388
2019-02-04T14:52:05.590Z,380
2019-02-04T14:52:47.811Z,376
2019-02-04T14:53:28.163Z,368
2019-02-04T14:54:11.303Z,360
2019-02-04T14:55:10.828Z,352
2019-02-04T14:55:51.410Z,348
2019-02-04T14:56:32.205Z,340
2019-02-04T14:57:21.452Z,336
2019-02-04T14:58:03.690Z,328
2019-02-04T14:58:47.459Z,324
2019-02-04T14:59:31.541Z,312
2019-02-04T15:00:15.135Z,304
2019-02-04T15:00:59.589Z,296
2019-02-04T15:01:41.283Z,288
2019-02-04T15:02:22.223Z,280
2019-02-04T15:03:12.241Z,272
2019-02-04T15:03:45.814Z,268
2019-02-04T15:04:29.422Z,268
2019-02-04T15:05:26.981Z,264
2019-02-04T15:08:11.354Z,260
2019-02-04T15:09:22.823Z,252
2019-02-04T15:10:20.568Z,248
2019-02-04T15:11:16.851Z,244
2019-02-04T15:12:12.057Z,236
2019-02-04T15:13:08.247Z,232
2019-02-04T15:14:04.286Z,232
2019-02-04T15:14:58.902Z,224
2019-02-04T15:15:55.016Z,224
2019-02-04T15:16:48.910Z,224
2019-02-04T15:17:43.606Z,220
2019-02-04T15:18:51.439Z,220
2019-02-04T15:22:32.987Z,204
2019-02-04T15:23:20.304Z,200
2019-02-04T15:24:12.515Z,196
2019-02-04T15:25:05.965Z,196
2019-02-04T15:26:00.174Z,188
2019-02-04T15:26:55.939Z,180
2019-02-04T15:27:51.958Z,168
2019-02-04T15:28:47.384Z,168
2019-02-04T15:29:46.575Z,160
2019-02-04T15:30:35.588Z,156
2019-02-04T15:31:28.380Z,148
2019-02-04T15:32:22.221Z,140
2019-02-04T15:33:15.036Z,136
2019-02-04T15:34:11.992Z,132
2019-02-04T15:35:05.181Z,128
2019-02-04T15:35:57.797Z,124
2019-02-04T15:36:50.303Z,116
2019-02-04T15:37:44.237Z,116
2019-02-04T15:38:36.542Z,112
2019-02-04T15:39:31.012Z,108
2019-02-04T15:40:25.136Z,104
2019-02-04T15:41:18.306Z,100
2019-02-04T15:42:11.235Z,96
2019-02-04T15:43:05.350Z,92
2019-02-04T15:43:59.488Z,88
2019-02-04T15:44:52.184Z,84
2019-02-04T15:45:45.964Z,80
2019-02-04T15:46:41.097Z,76
2019-02-04T15:47:35.682Z,76
2019-02-04T15:48:35.900Z,68
2019-02-04T15:49:30.468Z,64
2019-02-04T15:50:25.903Z,64
2019-02-04T15:51:21.718Z,64
2019-02-04T15:52:22.634Z,60
2019-02-04T15:53:38.295Z,56
2019-02-04T15:54:41.569Z,52
2019-02-04T15:55:43.800Z,48
2019-02-04T15:56:40.542Z,52
2019-02-04T15:57:50.464Z,48
2019-02-04T15:58:45.475Z,44
2019-02-04T15:59:43.508Z,40
2019-02-04T16:00:37.029Z,40
2019-02-04T16:01:41.116Z,36
2019-02-04T16:02:41.113Z,32
2019-02-04T16:03:39.231Z,28
2019-02-04T16:04:41.264Z,28
2019-02-04T16:05:40.909Z,24
2019-02-04T16:06:38.783Z,24
2019-02-04T16:07:31.235Z,28
2019-02-04T16:08:26.969Z,24
2019-02-04T16:11:26.410Z,24
2019-02-04T16:12:19.657Z,16
2019-02-04T16:13:17.670Z,20
2019-02-04T16:14:12.186Z,20
2019-02-04T16:15:06.974Z,20
2019-02-04T16:15:59.712Z,16
2019-02-04T16:16:52.393Z,16
2019-02-04T16:17:46.245Z,20
2019-02-04T16:18:39.901Z,20
2019-02-04T16:19:38.230Z,20
2019-02-04T16:20:31.985Z,16
2019-02-04T16:21:24.213Z,20
2019-02-04T16:22:16.969Z,16
2019-02-04T16:23:09.726Z,20
2019-02-04T16:24:03.376Z,16
2019-02-04T16:24:56.575Z,16
2019-02-04T16:25:54.959Z,12
2019-02-04T16:26:53.117Z,16
2019-02-04T16:27:48.560Z,12
2019-02-04T16:28:45.634Z,12
2019-02-04T16:29:39.519Z,8
2019-02-04T16:30:34.511Z,8
2019-02-04T16:31:30.085Z,12
2019-02-04T17:08:31.425Z,0
2019-02-04T17:09:14.547Z,0
2019-02-04T17:09:57.465Z,0
2019-02-04T17:10:37.789Z,0
2019-02-04T17:11:20.259Z,0
2019-02-04T17:12:02.790Z,0
2019-02-04T17:12:45.712Z,0
2019-02-04T17:32:21.271Z,0
2019-02-04T17:33:09.055Z,0
2019-02-04T17:33:53.751Z,0
2019-02-04T17:34:48.337Z,0
2019-02-04T18:12:29.791Z,0
2019-02-04T18:43:15.087Z,0
2019-02-04T18:44:10.324Z,0
2019-02-04T18:44:54.865Z,0
2019-02-04T19:10:48.273Z,0
2019-02-04T19:11:41.579Z,0
2019-02-04T19:12:33.870Z,0
2019-02-04T19:13:35.671Z,0
2019-02-04T19:14:19.395Z,0
2019-02-04T19:15:12.055Z,0
2019-02-04T19:16:04.880Z,0
2019-02-04T19:16:57.802Z,0
2019-02-04T19:17:50.386Z,0
2019-02-04T19:26:59.034Z,0
2019-02-04T19:27:52.720Z,0
2019-02-04T19:28:46.126Z,0
2019-02-04T19:29:41.215Z,0
2019-02-04T19:30:33.861Z,0
2019-02-04T19:31:27.063Z,0
2019-02-04T19:32:28.026Z,0
2019-02-04T19:38:43.704Z,0
2019-02-04T19:39:41.575Z,0
2019-02-04T19:40:42.719Z,0
2019-02-04T19:41:41.342Z,0
2019-02-04T19:42:43.118Z,0
2019-02-04T19:43:35.229Z,0
2019-02-04T19:44:27.829Z,0
2019-02-04T19:45:20.167Z,0
2019-02-04T19:46:12.359Z,0
2019-02-04T19:47:04.791Z,0
2019-02-04T19:47:57.467Z,0
2019-02-04T19:48:49.644Z,0
2019-02-04T19:49:42.158Z,0
2019-02-04T19:50:35.130Z,0
2019-02-04T19:51:27.951Z,0